メインページ
METAR-TAF:

METAR-TAF

空港 :

ベオグラード, セルビア

ベオグラード・ニコラ・テスラ空港

緯度: 44-49N, 経度: 020-17E, 海抜: 96m

現時点の気象観測

当レポートは13分前の09:30(UTC)に作成
北/北西の風 8kt、西/北西からの間で変化する
気温 12°C
湿度 58%
気圧 1026 hPa
視程10km以上
1,500メートル以下は雲なし、積乱雲なし

METAR: LYBE 250930Z 33008KT 300V360 CAVOK 12/04 Q1026 NOSIG

時間: 10:43 (09:43 UTC)

予報

当レポートは4時間43分前の05:00(UTC)に作成
予報は25日の 06時(UTC)から 26日の 06時(UTC)まで有効
北西の風 9kt
視程10km以上
高度3300ftの雲は散在している

TAF: LYBE 250500Z 2506/2606 32009KT 9999 SCT033 TX16/2513Z TN05/2605Z

4,000以上の空港の気象観測と天気予報(METAR報とTAF報)

利用可能な観測所は地図上に黄色い丸と赤い丸で示す。

丸の上にカーソルを重ねると観測所名を参照できる。

次にクリックすると気象観測と天気予報を参照できる。

マップの切り替え:黒色「×」印の緑ボタンをクリックして拡大、「-」印の緑ボタンをクリックして縮小、緑色の三角印をクリックして隣りの地図に切り替え


METAR-TAF: